Current Conditions
Mostly Clear
Conditions



Pressure
1008.81 (hPa) - 29.79 (inHG)
Visibility

9.7 (km) - 6.0 (miles)
Temperature
24  °C
Temperature
19  °C
Dewpoint
74  %
 Humidity
Wind Speed
5  km/h
3  kts
3  mph
1.3  m/s
Wind Direction
N
45°
E
90°
135°
S
180°
225°
W
270°
315°
 90°

Due East
Airport Data
LIRQ
Peretola Airport
Metar :LIRQ 210020Z 09003KT CAVOK 24/19 Q1009
Sun 21st July 01:20 am
Raw Metar Info
Raw METAR is the most common format in the world for the transmission of observational weather data. It is highly standardized through the International Civil Aviation Organization (ICAO), which allows it to be understood throughout most of the world.
API Info
Data Provided by
https://www.checkwx.com/weather/LIRQ

Aviation Weather providing METAR, TAF, AIRMET, SIGMET and OUTLOOK Weather Reports
© Info
CSS/SVG/PHP scripts were developed by weather34.com for use in the weather34 template © 2015-2024

Guide Info provided by Metar-Wikipedia